LFRM 221500Z AUTO 24010KT 210V280 9999 BKN032 15/07 Q1029 NOSIG

ElémentsDécodage
LFRM Station météo située sur l'aérodrome de LE-MANS Arnage
221500Z émis le 22 du mois à 15h00 UTC
AUTO Bulletin édité par un automate
24010KT vent du 240°, 10 noeuds
210V280 vent de direction variable entre 210° et 280°
9999 visibilité horizontale supérieure à 10 Km
BKN032 nuages morcelés (5/8 à 7/8) à 3200 pieds
15/07 température 15°C, point de rosée 07°C
 soit une humidité relative de 59%
Q1029 la pression au niveau de la mer (QNH) est de 1029 hPa
NOSIG Pas de changement significatif prévu au cours des deux heures suivant l'heure de l'observation